sensor_id;sensor_type;location;lat;lon;timestamp;P1;durP1;ratioP1;P2;durP2;ratioP2
38783;SDS011;24531;45.502;12.238;2023-02-01T00:01:41;94.65;;;48.90;;
38783;SDS011;24531;45.502;12.238;2023-02-01T00:04:07;89.43;;;49.17;;
38783;SDS011;24531;45.502;12.238;2023-02-01T00:06:33;89.15;;;50.33;;
38783;SDS011;24531;45.502;12.238;2023-02-01T00:08:59;93.72;;;51.65;;
38783;SDS011;24531;45.502;12.238;2023-02-01T00:11:24;97.70;;;50.38;;
38783;SDS011;24531;45.502;12.238;2023-02-01T00:13:50;96.13;;;52.88;;
38783;SDS011;24531;45.502;12.238;2023-02-01T00:18:48;89.10;;;49.63;;
38783;SDS011;24531;45.502;12.238;2023-02-01T00:21:15;67.10;;;37.33;;
38783;SDS011;24531;45.502;12.238;2023-02-01T00:23:43;92.00;;;47.20;;
38783;SDS011;24531;45.502;12.238;2023-02-01T00:26:15;92.53;;;51.08;;
38783;SDS011;24531;45.502;12.238;2023-02-01T00:28:43;88.85;;;48.67;;
38783;SDS011;24531;45.502;12.238;2023-02-01T00:31:08;97.22;;;50.78;;
38783;SDS011;24531;45.502;12.238;2023-02-01T00:33:34;85.88;;;49.28;;
38783;SDS011;24531;45.502;12.238;2023-02-01T00:36:04;99.38;;;50.72;;
38783;SDS011;24531;45.502;12.238;2023-02-01T00:38:31;92.65;;;51.92;;
38783;SDS011;24531;45.502;12.238;2023-02-01T00:41:08;86.63;;;47.83;;
38783;SDS011;24531;45.502;12.238;2023-02-01T00:43:36;90.10;;;48.78;;
38783;SDS011;24531;45.502;12.238;2023-02-01T00:46:02;85.88;;;46.97;;
38783;SDS011;24531;45.502;12.238;2023-02-01T00:48:28;89.80;;;49.17;;
38783;SDS011;24531;45.502;12.238;2023-02-01T00:50:58;90.72;;;50.30;;
38783;SDS011;24531;45.502;12.238;2023-02-01T00:53:25;89.20;;;48.78;;
38783;SDS011;24531;45.502;12.238;2023-02-01T00:55:51;87.47;;;48.80;;
38783;SDS011;24531;45.502;12.238;2023-02-01T00:58:17;92.38;;;48.75;;
38783;SDS011;24531;45.502;12.238;2023-02-01T01:00:43;89.85;;;48.17;;
38783;SDS011;24531;45.502;12.238;2023-02-01T01:03:09;95.50;;;50.45;;
38783;SDS011;24531;45.502;12.238;2023-02-01T01:05:47;95.32;;;49.72;;
38783;SDS011;24531;45.502;12.238;2023-02-01T01:08:13;85.93;;;47.33;;
38783;SDS011;24531;45.502;12.238;2023-02-01T01:10:40;89.45;;;46.38;;
38783;SDS011;24531;45.502;12.238;2023-02-01T01:13:06;82.38;;;46.15;;
38783;SDS011;24531;45.502;12.238;2023-02-01T01:15:39;84.13;;;46.03;;
38783;SDS011;24531;45.502;12.238;2023-02-01T01:18:05;84.65;;;47.30;;
38783;SDS011;24531;45.502;12.238;2023-02-01T01:20:31;90.53;;;47.63;;
38783;SDS011;24531;45.502;12.238;2023-02-01T01:22:59;87.80;;;46.63;;
38783;SDS011;24531;45.502;12.238;2023-02-01T01:25:24;86.80;;;46.97;;
38783;SDS011;24531;45.502;12.238;2023-02-01T01:27:50;86.55;;;46.50;;
38783;SDS011;24531;45.502;12.238;2023-02-01T01:30:16;91.68;;;50.10;;
38783;SDS011;24531;45.502;12.238;2023-02-01T01:32:42;88.10;;;47.10;;
38783;SDS011;24531;45.502;12.238;2023-02-01T01:35:08;80.47;;;45.10;;
38783;SDS011;24531;45.502;12.238;2023-02-01T01:37:34;87.43;;;47.70;;
38783;SDS011;24531;45.502;12.238;2023-02-01T01:40:01;86.60;;;47.75;;
38783;SDS011;24531;45.502;12.238;2023-02-01T01:42:27;81.57;;;45.15;;
38783;SDS011;24531;45.502;12.238;2023-02-01T01:44:57;88.63;;;48.38;;
38783;SDS011;24531;45.502;12.238;2023-02-01T01:47:23;86.80;;;47.22;;
38783;SDS011;24531;45.502;12.238;2023-02-01T01:49:51;93.45;;;47.63;;
38783;SDS011;24531;45.502;12.238;2023-02-01T01:52:16;83.53;;;46.47;;
38783;SDS011;24531;45.502;12.238;2023-02-01T01:54:45;87.43;;;47.10;;
38783;SDS011;24531;45.502;12.238;2023-02-01T01:59:46;78.80;;;41.47;;
38783;SDS011;24531;45.502;12.238;2023-02-01T02:02:15;84.85;;;44.63;;
38783;SDS011;24531;45.502;12.238;2023-02-01T02:04:41;86.30;;;45.22;;
38783;SDS011;24531;45.502;12.238;2023-02-01T02:07:08;78.72;;;43.53;;
38783;SDS011;24531;45.502;12.238;2023-02-01T02:09:38;78.60;;;42.55;;
38783;SDS011;24531;45.502;12.238;2023-02-01T02:12:03;71.47;;;41.53;;
38783;SDS011;24531;45.502;12.238;2023-02-01T02:14:29;83.10;;;43.72;;
38783;SDS011;24531;45.502;12.238;2023-02-01T02:19:38;69.68;;;39.75;;
38783;SDS011;24531;45.502;12.238;2023-02-01T02:42:52;68.18;;;35.83;;
38783;SDS011;24531;45.502;12.238;2023-02-01T02:46:46;64.05;;;34.33;;
38783;SDS011;24531;45.502;12.238;2023-02-01T02:49:15;63.53;;;35.15;;
38783;SDS011;24531;45.502;12.238;2023-02-01T02:54:55;71.50;;;37.25;;
38783;SDS011;24531;45.502;12.238;2023-02-01T03:00:10;72.00;;;36.80;;
38783;SDS011;24531;45.502;12.238;2023-02-01T03:03:00;69.82;;;36.10;;
38783;SDS011;24531;45.502;12.238;2023-02-01T03:05:45;64.43;;;34.92;;
38783;SDS011;24531;45.502;12.238;2023-02-01T03:16:15;61.70;;;33.72;;
38783;SDS011;24531;45.502;12.238;2023-02-01T03:24:00;65.30;;;35.53;;
38783;SDS011;24531;45.502;12.238;2023-02-01T03:26:32;62.75;;;33.08;;
38783;SDS011;24531;45.502;12.238;2023-02-01T03:29:05;61.63;;;34.60;;
38783;SDS011;24531;45.502;12.238;2023-02-01T03:31:36;59.03;;;31.83;;
38783;SDS011;24531;45.502;12.238;2023-02-01T03:34:01;68.28;;;34.55;;
38783;SDS011;24531;45.502;12.238;2023-02-01T03:36:35;64.13;;;32.63;;
38783;SDS011;24531;45.502;12.238;2023-02-01T03:41:55;61.92;;;33.50;;
38783;SDS011;24531;45.502;12.238;2023-02-01T03:44:26;62.10;;;31.42;;
38783;SDS011;24531;45.502;12.238;2023-02-01T03:47:06;64.13;;;31.63;;
38783;SDS011;24531;45.502;12.238;2023-02-01T03:52:04;57.70;;;30.33;;
38783;SDS011;24531;45.502;12.238;2023-02-01T03:54:34;58.95;;;30.88;;
38783;SDS011;24531;45.502;12.238;2023-02-01T03:57:01;54.50;;;31.05;;
38783;SDS011;24531;45.502;12.238;2023-02-01T03:59:32;57.15;;;31.35;;
38783;SDS011;24531;45.502;12.238;2023-02-01T04:01:58;62.30;;;32.15;;
38783;SDS011;24531;45.502;12.238;2023-02-01T04:04:23;62.05;;;31.35;;
38783;SDS011;24531;45.502;12.238;2023-02-01T04:06:49;59.90;;;32.28;;
38783;SDS011;24531;45.502;12.238;2023-02-01T04:09:15;58.47;;;30.63;;
38783;SDS011;24531;45.502;12.238;2023-02-01T04:11:42;54.65;;;30.98;;
38783;SDS011;24531;45.502;12.238;2023-02-01T04:14:08;57.95;;;30.92;;
38783;SDS011;24531;45.502;12.238;2023-02-01T04:16:34;60.63;;;32.30;;
38783;SDS011;24531;45.502;12.238;2023-02-01T04:19:00;57.60;;;30.20;;
38783;SDS011;24531;45.502;12.238;2023-02-01T04:21:26;59.65;;;32.83;;
38783;SDS011;24531;45.502;12.238;2023-02-01T04:23:52;55.03;;;32.80;;
38783;SDS011;24531;45.502;12.238;2023-02-01T04:26:18;63.95;;;32.42;;
38783;SDS011;24531;45.502;12.238;2023-02-01T04:28:44;61.08;;;30.05;;
38783;SDS011;24531;45.502;12.238;2023-02-01T04:31:14;67.43;;;33.35;;
38783;SDS011;24531;45.502;12.238;2023-02-01T04:33:41;66.60;;;32.35;;
38783;SDS011;24531;45.502;12.238;2023-02-01T04:36:06;61.25;;;31.02;;
38783;SDS011;24531;45.502;12.238;2023-02-01T04:38:32;56.85;;;31.92;;
38783;SDS011;24531;45.502;12.238;2023-02-01T04:40:58;55.20;;;29.75;;
38783;SDS011;24531;45.502;12.238;2023-02-01T04:43:25;59.60;;;30.77;;
38783;SDS011;24531;45.502;12.238;2023-02-01T04:45:51;58.78;;;32.47;;
38783;SDS011;24531;45.502;12.238;2023-02-01T04:48:18;61.60;;;32.45;;
38783;SDS011;24531;45.502;12.238;2023-02-01T04:50:44;60.13;;;31.30;;
38783;SDS011;24531;45.502;12.238;2023-02-01T04:53:13;60.10;;;32.75;;
38783;SDS011;24531;45.502;12.238;2023-02-01T04:55:42;57.97;;;32.58;;
38783;SDS011;24531;45.502;12.238;2023-02-01T04:58:08;63.97;;;32.92;;
38783;SDS011;24531;45.502;12.238;2023-02-01T05:00:34;61.40;;;32.65;;
38783;SDS011;24531;45.502;12.238;2023-02-01T05:03:00;58.30;;;31.73;;
38783;SDS011;24531;45.502;12.238;2023-02-01T05:05:26;66.03;;;34.40;;
38783;SDS011;24531;45.502;12.238;2023-02-01T05:07:52;60.58;;;31.50;;
38783;SDS011;24531;45.502;12.238;2023-02-01T05:10:18;60.58;;;32.15;;
38783;SDS011;24531;45.502;12.238;2023-02-01T05:12:43;57.47;;;32.00;;
38783;SDS011;24531;45.502;12.238;2023-02-01T05:15:28;57.88;;;31.02;;
38783;SDS011;24531;45.502;12.238;2023-02-01T05:17:54;61.58;;;33.97;;
38783;SDS011;24531;45.502;12.238;2023-02-01T05:20:20;63.47;;;31.95;;
38783;SDS011;24531;45.502;12.238;2023-02-01T05:22:46;62.30;;;30.90;;
38783;SDS011;24531;45.502;12.238;2023-02-01T05:25:11;53.15;;;31.13;;
38783;SDS011;24531;45.502;12.238;2023-02-01T05:27:37;57.88;;;31.80;;
38783;SDS011;24531;45.502;12.238;2023-02-01T05:30:03;60.60;;;32.10;;
38783;SDS011;24531;45.502;12.238;2023-02-01T05:32:31;60.25;;;32.63;;
38783;SDS011;24531;45.502;12.238;2023-02-01T05:34:57;65.47;;;33.50;;
38783;SDS011;24531;45.502;12.238;2023-02-01T05:37:22;63.03;;;31.30;;
38783;SDS011;24531;45.502;12.238;2023-02-01T05:39:48;59.33;;;31.65;;
38783;SDS011;24531;45.502;12.238;2023-02-01T05:42:14;50.67;;;29.63;;
38783;SDS011;24531;45.502;12.238;2023-02-01T05:44:40;67.45;;;34.28;;
38783;SDS011;24531;45.502;12.238;2023-02-01T05:47:06;74.63;;;40.35;;
38783;SDS011;24531;45.502;12.238;2023-02-01T05:49:32;67.82;;;36.78;;
38783;SDS011;24531;45.502;12.238;2023-02-01T05:51:58;92.40;;;44.63;;
38783;SDS011;24531;45.502;12.238;2023-02-01T05:54:24;92.88;;;49.65;;
38783;SDS011;24531;45.502;12.238;2023-02-01T05:56:50;79.22;;;42.03;;
38783;SDS011;24531;45.502;12.238;2023-02-01T05:59:16;80.10;;;38.67;;
38783;SDS011;24531;45.502;12.238;2023-02-01T06:01:41;72.80;;;37.75;;
38783;SDS011;24531;45.502;12.238;2023-02-01T06:04:07;88.68;;;45.15;;
38783;SDS011;24531;45.502;12.238;2023-02-01T06:06:33;75.90;;;40.55;;
38783;SDS011;24531;45.502;12.238;2023-02-01T06:08:59;81.97;;;42.65;;
38783;SDS011;24531;45.502;12.238;2023-02-01T06:11:26;74.93;;;39.45;;
38783;SDS011;24531;45.502;12.238;2023-02-01T06:13:52;71.43;;;37.88;;
38783;SDS011;24531;45.502;12.238;2023-02-01T06:16:18;86.55;;;41.40;;
38783;SDS011;24531;45.502;12.238;2023-02-01T06:18:44;71.30;;;39.47;;
38783;SDS011;24531;45.502;12.238;2023-02-01T06:21:10;91.72;;;45.42;;
38783;SDS011;24531;45.502;12.238;2023-02-01T06:23:35;84.18;;;39.33;;
38783;SDS011;24531;45.502;12.238;2023-02-01T06:26:02;81.53;;;43.28;;
38783;SDS011;24531;45.502;12.238;2023-02-01T06:28:30;73.13;;;42.03;;
38783;SDS011;24531;45.502;12.238;2023-02-01T06:30:57;83.07;;;42.47;;
38783;SDS011;24531;45.502;12.238;2023-02-01T06:33:23;75.20;;;39.50;;
38783;SDS011;24531;45.502;12.238;2023-02-01T06:35:55;84.10;;;44.88;;
38783;SDS011;24531;45.502;12.238;2023-02-01T06:38:22;137.32;;;70.05;;
38783;SDS011;24531;45.502;12.238;2023-02-01T06:40:51;87.72;;;44.63;;
38783;SDS011;24531;45.502;12.238;2023-02-01T06:43:18;81.18;;;40.55;;
38783;SDS011;24531;45.502;12.238;2023-02-01T06:45:44;100.63;;;56.13;;
38783;SDS011;24531;45.502;12.238;2023-02-01T06:48:10;81.05;;;41.80;;
38783;SDS011;24531;45.502;12.238;2023-02-01T06:50:35;76.93;;;40.65;;
38783;SDS011;24531;45.502;12.238;2023-02-01T06:53:01;75.35;;;40.53;;
38783;SDS011;24531;45.502;12.238;2023-02-01T06:55:26;80.22;;;44.85;;
38783;SDS011;24531;45.502;12.238;2023-02-01T06:57:53;70.60;;;39.30;;
38783;SDS011;24531;45.502;12.238;2023-02-01T07:00:19;74.75;;;39.75;;
38783;SDS011;24531;45.502;12.238;2023-02-01T07:02:45;71.50;;;38.60;;
38783;SDS011;24531;45.502;12.238;2023-02-01T07:05:11;72.07;;;39.33;;
38783;SDS011;24531;45.502;12.238;2023-02-01T07:07:36;67.40;;;38.20;;
38783;SDS011;24531;45.502;12.238;2023-02-01T07:10:02;70.43;;;40.20;;
38783;SDS011;24531;45.502;12.238;2023-02-01T07:12:28;78.03;;;41.15;;
38783;SDS011;24531;45.502;12.238;2023-02-01T07:14:53;68.28;;;36.35;;
38783;SDS011;24531;45.502;12.238;2023-02-01T07:17:19;68.22;;;36.53;;
38783;SDS011;24531;45.502;12.238;2023-02-01T07:19:44;63.08;;;35.67;;
38783;SDS011;24531;45.502;12.238;2023-02-01T07:22:10;71.85;;;38.50;;
38783;SDS011;24531;45.502;12.238;2023-02-01T07:24:36;72.32;;;37.63;;
38783;SDS011;24531;45.502;12.238;2023-02-01T07:27:01;71.82;;;37.50;;
38783;SDS011;24531;45.502;12.238;2023-02-01T07:29:27;64.43;;;36.58;;
38783;SDS011;24531;45.502;12.238;2023-02-01T07:31:52;72.53;;;37.58;;
38783;SDS011;24531;45.502;12.238;2023-02-01T07:34:18;80.78;;;40.10;;
38783;SDS011;24531;45.502;12.238;2023-02-01T07:36:43;76.53;;;38.72;;
38783;SDS011;24531;45.502;12.238;2023-02-01T07:39:09;76.78;;;38.85;;
38783;SDS011;24531;45.502;12.238;2023-02-01T07:41:35;70.90;;;37.50;;
38783;SDS011;24531;45.502;12.238;2023-02-01T07:44:00;72.10;;;38.72;;
38783;SDS011;24531;45.502;12.238;2023-02-01T07:46:26;73.68;;;39.42;;
38783;SDS011;24531;45.502;12.238;2023-02-01T07:48:51;74.82;;;38.95;;
38783;SDS011;24531;45.502;12.238;2023-02-01T07:51:17;70.03;;;36.58;;
38783;SDS011;24531;45.502;12.238;2023-02-01T07:53:43;70.90;;;38.25;;
38783;SDS011;24531;45.502;12.238;2023-02-01T07:56:17;67.55;;;36.97;;
38783;SDS011;24531;45.502;12.238;2023-02-01T07:58:47;74.85;;;39.75;;
38783;SDS011;24531;45.502;12.238;2023-02-01T08:01:15;72.55;;;38.13;;
38783;SDS011;24531;45.502;12.238;2023-02-01T08:03:45;69.88;;;37.78;;
38783;SDS011;24531;45.502;12.238;2023-02-01T08:06:11;67.60;;;36.10;;
38783;SDS011;24531;45.502;12.238;2023-02-01T08:08:37;65.18;;;36.13;;
38783;SDS011;24531;45.502;12.238;2023-02-01T08:11:04;71.03;;;37.75;;
38783;SDS011;24531;45.502;12.238;2023-02-01T08:13:30;66.15;;;36.78;;
38783;SDS011;24531;45.502;12.238;2023-02-01T08:15:58;66.70;;;36.15;;
38783;SDS011;24531;45.502;12.238;2023-02-01T08:18:24;66.03;;;36.60;;
38783;SDS011;24531;45.502;12.238;2023-02-01T08:20:50;65.57;;;39.53;;
38783;SDS011;24531;45.502;12.238;2023-02-01T08:23:16;69.03;;;37.80;;
38783;SDS011;24531;45.502;12.238;2023-02-01T08:25:42;69.35;;;37.50;;
38783;SDS011;24531;45.502;12.238;2023-02-01T08:28:08;71.55;;;38.00;;
38783;SDS011;24531;45.502;12.238;2023-02-01T08:30:36;67.15;;;36.15;;
38783;SDS011;24531;45.502;12.238;2023-02-01T08:33:02;77.00;;;39.90;;
38783;SDS011;24531;45.502;12.238;2023-02-01T08:35:28;69.25;;;37.40;;
38783;SDS011;24531;45.502;12.238;2023-02-01T08:37:54;77.38;;;37.85;;
38783;SDS011;24531;45.502;12.238;2023-02-01T08:40:19;68.57;;;36.42;;
38783;SDS011;24531;45.502;12.238;2023-02-01T08:42:46;69.68;;;38.17;;
38783;SDS011;24531;45.502;12.238;2023-02-01T08:45:19;74.20;;;37.83;;
38783;SDS011;24531;45.502;12.238;2023-02-01T08:47:48;67.47;;;36.13;;
38783;SDS011;24531;45.502;12.238;2023-02-01T08:50:15;69.43;;;37.08;;
38783;SDS011;24531;45.502;12.238;2023-02-01T08:52:41;61.83;;;35.85;;
38783;SDS011;24531;45.502;12.238;2023-02-01T08:55:07;66.88;;;35.90;;
38783;SDS011;24531;45.502;12.238;2023-02-01T08:57:33;67.57;;;37.00;;
38783;SDS011;24531;45.502;12.238;2023-02-01T08:59:59;67.20;;;38.20;;
38783;SDS011;24531;45.502;12.238;2023-02-01T09:02:25;71.40;;;38.83;;
38783;SDS011;24531;45.502;12.238;2023-02-01T09:04:51;73.85;;;36.10;;
38783;SDS011;24531;45.502;12.238;2023-02-01T09:07:17;69.95;;;37.58;;
38783;SDS011;24531;45.502;12.238;2023-02-01T09:09:43;65.38;;;38.55;;
38783;SDS011;24531;45.502;12.238;2023-02-01T09:12:09;70.20;;;37.22;;
38783;SDS011;24531;45.502;12.238;2023-02-01T09:14:35;66.43;;;38.25;;
38783;SDS011;24531;45.502;12.238;2023-02-01T09:17:01;71.32;;;38.92;;
38783;SDS011;24531;45.502;12.238;2023-02-01T09:19:27;70.43;;;39.05;;
38783;SDS011;24531;45.502;12.238;2023-02-01T09:21:53;67.18;;;38.05;;
38783;SDS011;24531;45.502;12.238;2023-02-01T09:24:19;69.72;;;40.40;;
38783;SDS011;24531;45.502;12.238;2023-02-01T09:26:45;73.28;;;41.00;;
38783;SDS011;24531;45.502;12.238;2023-02-01T09:29:11;79.20;;;40.65;;
38783;SDS011;24531;45.502;12.238;2023-02-01T09:31:37;71.50;;;38.60;;
38783;SDS011;24531;45.502;12.238;2023-02-01T09:34:04;76.15;;;42.33;;
38783;SDS011;24531;45.502;12.238;2023-02-01T09:36:31;68.93;;;40.08;;
38783;SDS011;24531;45.502;12.238;2023-02-01T09:38:57;73.78;;;39.30;;
38783;SDS011;24531;45.502;12.238;2023-02-01T09:46:47;70.72;;;39.97;;
38783;SDS011;24531;45.502;12.238;2023-02-01T09:49:18;76.18;;;42.78;;
38783;SDS011;24531;45.502;12.238;2023-02-01T09:51:48;70.78;;;41.17;;
38783;SDS011;24531;45.502;12.238;2023-02-01T09:54:19;70.82;;;41.00;;
38783;SDS011;24531;45.502;12.238;2023-02-01T09:57:06;67.78;;;39.58;;
38783;SDS011;24531;45.502;12.238;2023-02-01T09:59:52;71.88;;;39.05;;
38783;SDS011;24531;45.502;12.238;2023-02-01T10:02:26;62.97;;;37.50;;
38783;SDS011;24531;45.502;12.238;2023-02-01T10:04:54;67.45;;;39.28;;
38783;SDS011;24531;45.502;12.238;2023-02-01T10:10:39;70.18;;;36.00;;
38783;SDS011;24531;45.502;12.238;2023-02-01T10:13:14;61.50;;;36.15;;
38783;SDS011;24531;45.502;12.238;2023-02-01T10:25:56;68.88;;;36.88;;
38783;SDS011;24531;45.502;12.238;2023-02-01T10:28:26;64.47;;;36.90;;
38783;SDS011;24531;45.502;12.238;2023-02-01T10:30:53;72.22;;;37.97;;
38783;SDS011;24531;45.502;12.238;2023-02-01T10:33:26;62.78;;;36.47;;
38783;SDS011;24531;45.502;12.238;2023-02-01T10:36:10;64.85;;;37.78;;
38783;SDS011;24531;45.502;12.238;2023-02-01T10:38:42;64.80;;;36.70;;
38783;SDS011;24531;45.502;12.238;2023-02-01T10:43:38;62.35;;;35.80;;
38783;SDS011;24531;45.502;12.238;2023-02-01T10:46:05;70.85;;;38.70;;
38783;SDS011;24531;45.502;12.238;2023-02-01T10:48:32;61.90;;;35.03;;
38783;SDS011;24531;45.502;12.238;2023-02-01T10:53:54;68.00;;;38.28;;
38783;SDS011;24531;45.502;12.238;2023-02-01T10:56:27;60.28;;;35.50;;
38783;SDS011;24531;45.502;12.238;2023-02-01T10:59:06;62.05;;;35.50;;
38783;SDS011;24531;45.502;12.238;2023-02-01T11:01:41;68.10;;;36.80;;
38783;SDS011;24531;45.502;12.238;2023-02-01T11:04:10;64.28;;;36.58;;
38783;SDS011;24531;45.502;12.238;2023-02-01T11:06:39;66.07;;;35.30;;
38783;SDS011;24531;45.502;12.238;2023-02-01T11:11:32;69.95;;;37.22;;
38783;SDS011;24531;45.502;12.238;2023-02-01T11:14:18;59.50;;;34.25;;
38783;SDS011;24531;45.502;12.238;2023-02-01T11:16:51;58.97;;;35.05;;
38783;SDS011;24531;45.502;12.238;2023-02-01T11:19:23;63.50;;;34.38;;
38783;SDS011;24531;45.502;12.238;2023-02-01T11:21:50;66.18;;;37.13;;
38783;SDS011;24531;45.502;12.238;2023-02-01T11:24:27;65.75;;;37.15;;
38783;SDS011;24531;45.502;12.238;2023-02-01T11:26:55;64.35;;;35.72;;
38783;SDS011;24531;45.502;12.238;2023-02-01T11:29:21;59.45;;;36.30;;
38783;SDS011;24531;45.502;12.238;2023-02-01T11:31:53;62.77;;;35.87;;
38783;SDS011;24531;45.502;12.238;2023-02-01T11:34:30;61.17;;;36.67;;
38783;SDS011;24531;45.502;12.238;2023-02-01T11:37:24;65.13;;;35.67;;
38783;SDS011;24531;45.502;12.238;2023-02-01T11:39:54;67.80;;;38.30;;
38783;SDS011;24531;45.502;12.238;2023-02-01T11:42:21;68.90;;;39.00;;
38783;SDS011;24531;45.502;12.238;2023-02-01T11:44:47;65.70;;;38.72;;
38783;SDS011;24531;45.502;12.238;2023-02-01T11:47:26;69.90;;;38.53;;
38783;SDS011;24531;45.502;12.238;2023-02-01T11:50:00;66.40;;;37.80;;
38783;SDS011;24531;45.502;12.238;2023-02-01T12:00:53;61.88;;;37.13;;
38783;SDS011;24531;45.502;12.238;2023-02-01T12:06:25;68.63;;;37.90;;
38783;SDS011;24531;45.502;12.238;2023-02-01T12:23:25;64.68;;;38.10;;
38783;SDS011;24531;45.502;12.238;2023-02-01T12:37:35;62.53;;;36.65;;
38783;SDS011;24531;45.502;12.238;2023-02-01T12:42:59;67.55;;;37.97;;
38783;SDS011;24531;45.502;12.238;2023-02-01T12:45:58;66.25;;;36.97;;
38783;SDS011;24531;45.502;12.238;2023-02-01T12:49:10;71.53;;;37.40;;
38783;SDS011;24531;45.502;12.238;2023-02-01T12:51:20;73.25;;;40.20;;
38783;SDS011;24531;45.502;12.238;2023-02-01T12:56:34;71.85;;;38.35;;
38783;SDS011;24531;45.502;12.238;2023-02-01T12:59:04;75.88;;;39.38;;
38783;SDS011;24531;45.502;12.238;2023-02-01T13:01:39;73.38;;;39.50;;
38783;SDS011;24531;45.502;12.238;2023-02-01T13:04:25;76.82;;;41.78;;
38783;SDS011;24531;45.502;12.238;2023-02-01T13:07:01;69.03;;;39.97;;
38783;SDS011;24531;45.502;12.238;2023-02-01T13:09:43;70.60;;;40.58;;
38783;SDS011;24531;45.502;12.238;2023-02-01T13:12:24;69.75;;;39.63;;
38783;SDS011;24531;45.502;12.238;2023-02-01T13:14:58;72.20;;;38.92;;
38783;SDS011;24531;45.502;12.238;2023-02-01T13:17:30;71.50;;;39.70;;
38783;SDS011;24531;45.502;12.238;2023-02-01T13:20:19;71.00;;;40.38;;
38783;SDS011;24531;45.502;12.238;2023-02-01T13:22:48;67.97;;;39.75;;
38783;SDS011;24531;45.502;12.238;2023-02-01T13:25:27;67.97;;;37.53;;
38783;SDS011;24531;45.502;12.238;2023-02-01T13:28:00;69.47;;;39.05;;
38783;SDS011;24531;45.502;12.238;2023-02-01T13:30:55;75.40;;;41.60;;
38783;SDS011;24531;45.502;12.238;2023-02-01T13:42:03;77.77;;;41.70;;
38783;SDS011;24531;45.502;12.238;2023-02-01T13:44:58;77.47;;;42.25;;
38783;SDS011;24531;45.502;12.238;2023-02-01T13:47:42;80.93;;;42.65;;
38783;SDS011;24531;45.502;12.238;2023-02-01T13:52:43;77.68;;;43.40;;
38783;SDS011;24531;45.502;12.238;2023-02-01T13:55:14;72.45;;;43.97;;
38783;SDS011;24531;45.502;12.238;2023-02-01T13:57:49;75.45;;;42.58;;
38783;SDS011;24531;45.502;12.238;2023-02-01T14:08:21;79.22;;;43.58;;
38783;SDS011;24531;45.502;12.238;2023-02-01T14:11:10;81.95;;;43.65;;
38783;SDS011;24531;45.502;12.238;2023-02-01T14:14:06;74.97;;;41.97;;
38783;SDS011;24531;45.502;12.238;2023-02-01T14:19:25;81.38;;;43.72;;
38783;SDS011;24531;45.502;12.238;2023-02-01T14:21:52;74.88;;;43.78;;
38783;SDS011;24531;45.502;12.238;2023-02-01T14:24:33;78.53;;;43.00;;
38783;SDS011;24531;45.502;12.238;2023-02-01T14:29:40;74.18;;;41.28;;
38783;SDS011;24531;45.502;12.238;2023-02-01T14:32:11;74.68;;;41.28;;
38783;SDS011;24531;45.502;12.238;2023-02-01T14:42:50;74.45;;;42.33;;
38783;SDS011;24531;45.502;12.238;2023-02-01T15:01:03;75.38;;;42.53;;
38783;SDS011;24531;45.502;12.238;2023-02-01T15:03:54;76.70;;;42.80;;
38783;SDS011;24531;45.502;12.238;2023-02-01T15:06:38;73.75;;;42.60;;
38783;SDS011;24531;45.502;12.238;2023-02-01T15:14:20;78.95;;;44.53;;
38783;SDS011;24531;45.502;12.238;2023-02-01T15:16:46;96.88;;;56.83;;
38783;SDS011;24531;45.502;12.238;2023-02-01T15:19:18;91.83;;;51.70;;
38783;SDS011;24531;45.502;12.238;2023-02-01T15:21:50;104.47;;;57.80;;
38783;SDS011;24531;45.502;12.238;2023-02-01T15:24:24;94.93;;;50.88;;
38783;SDS011;24531;45.502;12.238;2023-02-01T15:26:51;93.43;;;50.25;;
38783;SDS011;24531;45.502;12.238;2023-02-01T15:29:18;90.95;;;48.67;;
38783;SDS011;24531;45.502;12.238;2023-02-01T15:31:47;97.72;;;55.10;;
38783;SDS011;24531;45.502;12.238;2023-02-01T15:34:17;89.78;;;46.55;;
38783;SDS011;24531;45.502;12.238;2023-02-01T15:36:44;91.88;;;49.20;;
38783;SDS011;24531;45.502;12.238;2023-02-01T15:41:48;76.82;;;43.40;;
38783;SDS011;24531;45.502;12.238;2023-02-01T15:44:20;79.57;;;44.35;;
38783;SDS011;24531;45.502;12.238;2023-02-01T15:46:53;80.63;;;44.08;;
38783;SDS011;24531;45.502;12.238;2023-02-01T15:51:54;142.02;;;64.18;;
38783;SDS011;24531;45.502;12.238;2023-02-01T15:54:28;108.95;;;57.00;;
38783;SDS011;24531;45.502;12.238;2023-02-01T15:57:09;104.18;;;52.40;;
38783;SDS011;24531;45.502;12.238;2023-02-01T15:59:42;96.55;;;50.88;;
38783;SDS011;24531;45.502;12.238;2023-02-01T16:04:59;87.20;;;45.60;;
38783;SDS011;24531;45.502;12.238;2023-02-01T16:07:27;85.20;;;45.35;;
38783;SDS011;24531;45.502;12.238;2023-02-01T16:09:56;86.10;;;44.88;;
38783;SDS011;24531;45.502;12.238;2023-02-01T16:12:34;81.68;;;44.63;;
38783;SDS011;24531;45.502;12.238;2023-02-01T16:15:11;84.18;;;43.70;;
38783;SDS011;24531;45.502;12.238;2023-02-01T16:17:37;91.15;;;46.80;;
38783;SDS011;24531;45.502;12.238;2023-02-01T16:20:03;79.55;;;44.58;;
38783;SDS011;24531;45.502;12.238;2023-02-01T16:22:29;83.25;;;45.60;;
38783;SDS011;24531;45.502;12.238;2023-02-01T16:24:55;88.10;;;46.80;;
38783;SDS011;24531;45.502;12.238;2023-02-01T16:27:20;76.05;;;40.25;;
38783;SDS011;24531;45.502;12.238;2023-02-01T16:29:47;82.53;;;44.88;;
38783;SDS011;24531;45.502;12.238;2023-02-01T16:32:15;81.90;;;44.33;;
38783;SDS011;24531;45.502;12.238;2023-02-01T16:34:43;75.07;;;41.30;;
38783;SDS011;24531;45.502;12.238;2023-02-01T16:37:16;90.97;;;46.40;;
38783;SDS011;24531;45.502;12.238;2023-02-01T16:39:46;101.65;;;53.83;;
38783;SDS011;24531;45.502;12.238;2023-02-01T16:42:12;97.03;;;51.05;;
38783;SDS011;24531;45.502;12.238;2023-02-01T16:44:39;84.43;;;45.10;;
38783;SDS011;24531;45.502;12.238;2023-02-01T16:47:13;90.70;;;44.95;;
38783;SDS011;24531;45.502;12.238;2023-02-01T16:49:45;81.50;;;42.92;;
38783;SDS011;24531;45.502;12.238;2023-02-01T16:52:21;76.90;;;43.10;;
38783;SDS011;24531;45.502;12.238;2023-02-01T16:54:48;87.63;;;46.40;;
38783;SDS011;24531;45.502;12.238;2023-02-01T16:57:15;92.47;;;44.65;;
38783;SDS011;24531;45.502;12.238;2023-02-01T16:59:42;82.97;;;43.15;;
38783;SDS011;24531;45.502;12.238;2023-02-01T17:02:10;85.80;;;41.65;;
38783;SDS011;24531;45.502;12.238;2023-02-01T17:04:38;81.15;;;42.42;;
38783;SDS011;24531;45.502;12.238;2023-02-01T17:07:04;86.00;;;43.83;;
38783;SDS011;24531;45.502;12.238;2023-02-01T17:09:37;93.18;;;44.42;;
38783;SDS011;24531;45.502;12.238;2023-02-01T17:12:03;89.07;;;44.53;;
38783;SDS011;24531;45.502;12.238;2023-02-01T17:14:30;87.93;;;43.28;;
38783;SDS011;24531;45.502;12.238;2023-02-01T17:16:59;84.30;;;43.15;;
38783;SDS011;24531;45.502;12.238;2023-02-01T17:19:25;101.43;;;44.08;;
38783;SDS011;24531;45.502;12.238;2023-02-01T17:21:52;85.60;;;43.10;;
38783;SDS011;24531;45.502;12.238;2023-02-01T17:24:21;83.28;;;42.10;;
38783;SDS011;24531;45.502;12.238;2023-02-01T17:26:49;89.40;;;44.45;;